sensor_id;sensor_type;location;lat;lon;timestamp;P1;durP1;ratioP1;P2;durP2;ratioP2
23140;SDS011;11739;54.750;9.124;2022-09-09T00:01:06;42.95;;;21.35;;
23140;SDS011;11739;54.750;9.124;2022-09-09T00:03:40;32.03;;;20.10;;
23140;SDS011;11739;54.750;9.124;2022-09-09T00:06:19;32.88;;;20.45;;
23140;SDS011;11739;54.750;9.124;2022-09-09T00:09:04;29.15;;;19.80;;
23140;SDS011;11739;54.750;9.124;2022-09-09T00:11:52;30.25;;;20.58;;
23140;SDS011;11739;54.750;9.124;2022-09-09T00:16:53;37.90;;;20.92;;
23140;SDS011;11739;54.750;9.124;2022-09-09T00:22:04;28.98;;;19.52;;
23140;SDS011;11739;54.750;9.124;2022-09-09T00:24:51;40.38;;;22.63;;
23140;SDS011;11739;54.750;9.124;2022-09-09T00:27:28;32.08;;;20.88;;
23140;SDS011;11739;54.750;9.124;2022-09-09T00:32:54;28.23;;;19.55;;
23140;SDS011;11739;54.750;9.124;2022-09-09T00:35:25;31.45;;;21.60;;
23140;SDS011;11739;54.750;9.124;2022-09-09T00:37:56;32.55;;;21.42;;
23140;SDS011;11739;54.750;9.124;2022-09-09T00:40:27;26.83;;;18.88;;
23140;SDS011;11739;54.750;9.124;2022-09-09T00:43:10;32.92;;;21.13;;
23140;SDS011;11739;54.750;9.124;2022-09-09T00:46:00;31.38;;;21.52;;
23140;SDS011;11739;54.750;9.124;2022-09-09T00:48:58;35.00;;;23.55;;
23140;SDS011;11739;54.750;9.124;2022-09-09T00:51:43;29.50;;;21.38;;
23140;SDS011;11739;54.750;9.124;2022-09-09T00:54:16;23.08;;;15.73;;
23140;SDS011;11739;54.750;9.124;2022-09-09T01:05:30;43.83;;;24.80;;
23140;SDS011;11739;54.750;9.124;2022-09-09T01:08:03;33.22;;;23.05;;
23140;SDS011;11739;54.750;9.124;2022-09-09T01:10:51;28.55;;;21.10;;
23140;SDS011;11739;54.750;9.124;2022-09-09T01:13:22;29.38;;;21.88;;
23140;SDS011;11739;54.750;9.124;2022-09-09T01:15:50;27.98;;;21.88;;
23140;SDS011;11739;54.750;9.124;2022-09-09T01:18:26;25.67;;;21.10;;
23140;SDS011;11739;54.750;9.124;2022-09-09T01:20:59;30.80;;;22.17;;
23140;SDS011;11739;54.750;9.124;2022-09-09T01:26:33;36.15;;;23.70;;
23140;SDS011;11739;54.750;9.124;2022-09-09T01:29:01;41.58;;;23.52;;
23140;SDS011;11739;54.750;9.124;2022-09-09T01:31:30;38.53;;;25.20;;
23140;SDS011;11739;54.750;9.124;2022-09-09T01:33:59;46.80;;;26.10;;
23140;SDS011;11739;54.750;9.124;2022-09-09T01:36:32;37.83;;;24.40;;
23140;SDS011;11739;54.750;9.124;2022-09-09T01:39:10;44.92;;;26.05;;
23140;SDS011;11739;54.750;9.124;2022-09-09T01:41:36;37.40;;;23.67;;
23140;SDS011;11739;54.750;9.124;2022-09-09T01:44:03;43.20;;;26.02;;
23140;SDS011;11739;54.750;9.124;2022-09-09T01:46:31;44.83;;;25.95;;
23140;SDS011;11739;54.750;9.124;2022-09-09T01:48:57;44.88;;;26.77;;
23140;SDS011;11739;54.750;9.124;2022-09-09T01:51:25;42.63;;;26.85;;
23140;SDS011;11739;54.750;9.124;2022-09-09T01:53:52;42.25;;;27.60;;
23140;SDS011;11739;54.750;9.124;2022-09-09T02:06:53;58.80;;;30.05;;
23140;SDS011;11739;54.750;9.124;2022-09-09T02:09:22;45.42;;;26.00;;
23140;SDS011;11739;54.750;9.124;2022-09-09T02:11:54;45.92;;;26.05;;
23140;SDS011;11739;54.750;9.124;2022-09-09T02:14:26;46.10;;;25.52;;
23140;SDS011;11739;54.750;9.124;2022-09-09T02:16:55;59.90;;;27.48;;
23140;SDS011;11739;54.750;9.124;2022-09-09T02:19:27;40.15;;;25.88;;
23140;SDS011;11739;54.750;9.124;2022-09-09T02:21:59;44.50;;;25.90;;
23140;SDS011;11739;54.750;9.124;2022-09-09T02:24:27;42.72;;;25.85;;
23140;SDS011;11739;54.750;9.124;2022-09-09T02:26:55;46.72;;;27.00;;
23140;SDS011;11739;54.750;9.124;2022-09-09T02:29:24;51.53;;;28.58;;
23140;SDS011;11739;54.750;9.124;2022-09-09T02:31:52;50.83;;;28.83;;
23140;SDS011;11739;54.750;9.124;2022-09-09T02:34:22;60.13;;;30.48;;
23140;SDS011;11739;54.750;9.124;2022-09-09T02:36:50;78.68;;;33.25;;
23140;SDS011;11739;54.750;9.124;2022-09-09T02:39:18;63.15;;;31.67;;
23140;SDS011;11739;54.750;9.124;2022-09-09T02:41:45;57.22;;;30.80;;
23140;SDS011;11739;54.750;9.124;2022-09-09T02:44:12;53.15;;;29.92;;
23140;SDS011;11739;54.750;9.124;2022-09-09T02:52:42;74.53;;;32.20;;
23140;SDS011;11739;54.750;9.124;2022-09-09T02:55:38;59.47;;;30.70;;
23140;SDS011;11739;54.750;9.124;2022-09-09T02:58:07;52.15;;;31.42;;
23140;SDS011;11739;54.750;9.124;2022-09-09T03:00:37;51.22;;;31.08;;
23140;SDS011;11739;54.750;9.124;2022-09-09T03:03:06;56.45;;;30.17;;
23140;SDS011;11739;54.750;9.124;2022-09-09T03:05:34;53.97;;;30.63;;
23140;SDS011;11739;54.750;9.124;2022-09-09T03:08:00;66.68;;;33.15;;
23140;SDS011;11739;54.750;9.124;2022-09-09T03:10:27;67.28;;;33.22;;
23140;SDS011;11739;54.750;9.124;2022-09-09T03:12:53;58.88;;;31.77;;
23140;SDS011;11739;54.750;9.124;2022-09-09T03:15:21;49.90;;;31.42;;
23140;SDS011;11739;54.750;9.124;2022-09-09T03:17:48;60.97;;;33.03;;
23140;SDS011;11739;54.750;9.124;2022-09-09T03:20:14;49.20;;;30.30;;
23140;SDS011;11739;54.750;9.124;2022-09-09T03:22:41;71.20;;;33.95;;
23140;SDS011;11739;54.750;9.124;2022-09-09T03:25:07;50.38;;;30.20;;
23140;SDS011;11739;54.750;9.124;2022-09-09T03:27:34;115.20;;;37.40;;
23140;SDS011;11739;54.750;9.124;2022-09-09T03:30:01;58.78;;;33.22;;
23140;SDS011;11739;54.750;9.124;2022-09-09T03:32:29;63.25;;;32.65;;
23140;SDS011;11739;54.750;9.124;2022-09-09T03:34:57;53.65;;;30.98;;
23140;SDS011;11739;54.750;9.124;2022-09-09T03:37:23;50.50;;;31.20;;
23140;SDS011;11739;54.750;9.124;2022-09-09T03:39:50;51.97;;;31.27;;
23140;SDS011;11739;54.750;9.124;2022-09-09T03:42:16;68.90;;;33.50;;
23140;SDS011;11739;54.750;9.124;2022-09-09T03:44:46;54.38;;;32.65;;
23140;SDS011;11739;54.750;9.124;2022-09-09T03:47:16;52.47;;;30.85;;
23140;SDS011;11739;54.750;9.124;2022-09-09T03:49:44;44.60;;;31.25;;
23140;SDS011;11739;54.750;9.124;2022-09-09T03:52:11;43.60;;;29.80;;
23140;SDS011;11739;54.750;9.124;2022-09-09T03:54:38;65.40;;;35.67;;
23140;SDS011;11739;54.750;9.124;2022-09-09T03:57:05;54.47;;;33.47;;
23140;SDS011;11739;54.750;9.124;2022-09-09T03:59:33;52.30;;;33.00;;
23140;SDS011;11739;54.750;9.124;2022-09-09T04:02:01;47.70;;;31.10;;
23140;SDS011;11739;54.750;9.124;2022-09-09T04:04:28;44.13;;;30.42;;
23140;SDS011;11739;54.750;9.124;2022-09-09T04:06:54;43.13;;;31.67;;
23140;SDS011;11739;54.750;9.124;2022-09-09T04:09:21;44.95;;;30.08;;
23140;SDS011;11739;54.750;9.124;2022-09-09T04:11:47;38.78;;;28.42;;
23140;SDS011;11739;54.750;9.124;2022-09-09T04:14:15;48.70;;;32.90;;
23140;SDS011;11739;54.750;9.124;2022-09-09T04:16:42;41.42;;;31.63;;
23140;SDS011;11739;54.750;9.124;2022-09-09T04:19:11;43.35;;;31.77;;
23140;SDS011;11739;54.750;9.124;2022-09-09T04:21:40;46.22;;;32.97;;
23140;SDS011;11739;54.750;9.124;2022-09-09T04:24:07;43.40;;;31.77;;
23140;SDS011;11739;54.750;9.124;2022-09-09T04:26:34;42.13;;;31.75;;
23140;SDS011;11739;54.750;9.124;2022-09-09T04:29:03;52.08;;;33.15;;
23140;SDS011;11739;54.750;9.124;2022-09-09T04:31:30;46.05;;;32.25;;
23140;SDS011;11739;54.750;9.124;2022-09-09T04:33:56;43.85;;;30.88;;
23140;SDS011;11739;54.750;9.124;2022-09-09T04:36:23;43.38;;;32.22;;
23140;SDS011;11739;54.750;9.124;2022-09-09T04:38:49;57.08;;;35.60;;
23140;SDS011;11739;54.750;9.124;2022-09-09T04:41:16;70.90;;;37.67;;
23140;SDS011;11739;54.750;9.124;2022-09-09T04:43:42;45.72;;;31.67;;
23140;SDS011;11739;54.750;9.124;2022-09-09T04:46:09;54.90;;;33.85;;
23140;SDS011;11739;54.750;9.124;2022-09-09T04:48:36;44.33;;;30.80;;
23140;SDS011;11739;54.750;9.124;2022-09-09T04:51:04;43.65;;;30.35;;
23140;SDS011;11739;54.750;9.124;2022-09-09T04:53:31;59.50;;;34.17;;
23140;SDS011;11739;54.750;9.124;2022-09-09T04:56:03;60.58;;;34.05;;
23140;SDS011;11739;54.750;9.124;2022-09-09T04:58:40;49.55;;;30.70;;
23140;SDS011;11739;54.750;9.124;2022-09-09T05:01:11;40.72;;;28.35;;
23140;SDS011;11739;54.750;9.124;2022-09-09T05:03:42;41.13;;;28.95;;
23140;SDS011;11739;54.750;9.124;2022-09-09T05:06:09;71.57;;;34.13;;
23140;SDS011;11739;54.750;9.124;2022-09-09T05:08:37;37.95;;;28.90;;
23140;SDS011;11739;54.750;9.124;2022-09-09T05:11:13;47.53;;;30.73;;
23140;SDS011;11739;54.750;9.124;2022-09-09T05:13:46;40.40;;;29.85;;
23140;SDS011;11739;54.750;9.124;2022-09-09T05:16:13;49.90;;;30.65;;
23140;SDS011;11739;54.750;9.124;2022-09-09T05:18:40;32.92;;;27.00;;
23140;SDS011;11739;54.750;9.124;2022-09-09T05:21:09;36.95;;;27.75;;
23140;SDS011;11739;54.750;9.124;2022-09-09T05:23:38;43.28;;;28.17;;
23140;SDS011;11739;54.750;9.124;2022-09-09T05:26:06;39.42;;;27.45;;
23140;SDS011;11739;54.750;9.124;2022-09-09T05:28:34;39.17;;;25.23;;
23140;SDS011;11739;54.750;9.124;2022-09-09T05:31:05;39.38;;;26.67;;
23140;SDS011;11739;54.750;9.124;2022-09-09T05:33:37;39.38;;;26.60;;
23140;SDS011;11739;54.750;9.124;2022-09-09T05:36:07;44.92;;;26.60;;
23140;SDS011;11739;54.750;9.124;2022-09-09T05:38:34;35.58;;;25.38;;
23140;SDS011;11739;54.750;9.124;2022-09-09T05:41:02;36.63;;;26.30;;
23140;SDS011;11739;54.750;9.124;2022-09-09T05:43:28;32.38;;;26.00;;
23140;SDS011;11739;54.750;9.124;2022-09-09T05:45:59;45.08;;;27.50;;
23140;SDS011;11739;54.750;9.124;2022-09-09T05:48:37;53.17;;;29.50;;
23140;SDS011;11739;54.750;9.124;2022-09-09T05:51:05;48.25;;;28.20;;
23140;SDS011;11739;54.750;9.124;2022-09-09T05:53:33;40.92;;;27.73;;
23140;SDS011;11739;54.750;9.124;2022-09-09T05:56:03;51.45;;;28.88;;
23140;SDS011;11739;54.750;9.124;2022-09-09T05:58:31;74.93;;;30.52;;
23140;SDS011;11739;54.750;9.124;2022-09-09T06:01:02;63.85;;;28.27;;
23140;SDS011;11739;54.750;9.124;2022-09-09T06:03:37;51.35;;;27.17;;
23140;SDS011;11739;54.750;9.124;2022-09-09T06:06:05;68.95;;;29.90;;
23140;SDS011;11739;54.750;9.124;2022-09-09T06:08:34;71.10;;;28.33;;
23140;SDS011;11739;54.750;9.124;2022-09-09T06:11:04;35.17;;;27.27;;
23140;SDS011;11739;54.750;9.124;2022-09-09T06:13:31;58.70;;;29.30;;
23140;SDS011;11739;54.750;9.124;2022-09-09T06:15:58;74.45;;;31.90;;
23140;SDS011;11739;54.750;9.124;2022-09-09T06:18:25;50.35;;;30.58;;
23140;SDS011;11739;54.750;9.124;2022-09-09T06:20:58;64.28;;;32.65;;
23140;SDS011;11739;54.750;9.124;2022-09-09T06:23:33;45.65;;;29.45;;
23140;SDS011;11739;54.750;9.124;2022-09-09T06:26:09;37.03;;;26.90;;
23140;SDS011;11739;54.750;9.124;2022-09-09T06:28:37;59.15;;;28.95;;
23140;SDS011;11739;54.750;9.124;2022-09-09T06:31:05;38.25;;;25.90;;
23140;SDS011;11739;54.750;9.124;2022-09-09T06:33:37;35.28;;;25.52;;
23140;SDS011;11739;54.750;9.124;2022-09-09T06:36:10;32.88;;;25.23;;
23140;SDS011;11739;54.750;9.124;2022-09-09T06:38:38;33.97;;;25.30;;
23140;SDS011;11739;54.750;9.124;2022-09-09T06:41:04;50.25;;;27.25;;
23140;SDS011;11739;54.750;9.124;2022-09-09T06:43:31;31.05;;;24.95;;
23140;SDS011;11739;54.750;9.124;2022-09-09T06:48:26;42.50;;;27.27;;
23140;SDS011;11739;54.750;9.124;2022-09-09T06:53:30;32.00;;;25.55;;
23140;SDS011;11739;54.750;9.124;2022-09-09T06:56:03;46.15;;;26.45;;
23140;SDS011;11739;54.750;9.124;2022-09-09T06:58:44;35.92;;;25.10;;
23140;SDS011;11739;54.750;9.124;2022-09-09T07:01:12;44.42;;;28.10;;
23140;SDS011;11739;54.750;9.124;2022-09-09T07:03:40;44.60;;;28.15;;
23140;SDS011;11739;54.750;9.124;2022-09-09T07:06:08;49.35;;;26.42;;
23140;SDS011;11739;54.750;9.124;2022-09-09T07:08:41;45.28;;;26.10;;
23140;SDS011;11739;54.750;9.124;2022-09-09T07:11:07;52.38;;;28.65;;
23140;SDS011;11739;54.750;9.124;2022-09-09T07:13:37;33.10;;;24.67;;
23140;SDS011;11739;54.750;9.124;2022-09-09T07:16:08;31.23;;;24.90;;
23140;SDS011;11739;54.750;9.124;2022-09-09T07:18:36;33.45;;;25.50;;
23140;SDS011;11739;54.750;9.124;2022-09-09T07:21:03;43.38;;;27.55;;
23140;SDS011;11739;54.750;9.124;2022-09-09T07:23:30;31.55;;;25.40;;
23140;SDS011;11739;54.750;9.124;2022-09-09T07:26:02;36.05;;;26.80;;
23140;SDS011;11739;54.750;9.124;2022-09-09T07:28:29;28.92;;;23.70;;
23140;SDS011;11739;54.750;9.124;2022-09-09T07:30:57;35.33;;;26.45;;
23140;SDS011;11739;54.750;9.124;2022-09-09T07:33:29;36.85;;;27.55;;
23140;SDS011;11739;54.750;9.124;2022-09-09T07:36:07;33.85;;;25.80;;
23140;SDS011;11739;54.750;9.124;2022-09-09T07:38:41;32.40;;;26.33;;
23140;SDS011;11739;54.750;9.124;2022-09-09T07:41:10;37.17;;;28.00;;
23140;SDS011;11739;54.750;9.124;2022-09-09T07:43:39;30.27;;;24.80;;
23140;SDS011;11739;54.750;9.124;2022-09-09T07:46:09;38.15;;;28.77;;
23140;SDS011;11739;54.750;9.124;2022-09-09T07:48:36;42.88;;;29.33;;
23140;SDS011;11739;54.750;9.124;2022-09-09T07:51:04;27.90;;;24.88;;
23140;SDS011;11739;54.750;9.124;2022-09-09T07:53:32;35.85;;;27.95;;
23140;SDS011;11739;54.750;9.124;2022-09-09T07:56:03;30.42;;;25.00;;
23140;SDS011;11739;54.750;9.124;2022-09-09T07:58:38;31.73;;;25.85;;
23140;SDS011;11739;54.750;9.124;2022-09-09T08:03:35;33.60;;;26.50;;
23140;SDS011;11739;54.750;9.124;2022-09-09T08:06:03;31.52;;;26.05;;
23140;SDS011;11739;54.750;9.124;2022-09-09T08:08:30;30.90;;;25.45;;
23140;SDS011;11739;54.750;9.124;2022-09-09T08:11:08;29.90;;;26.10;;
23140;SDS011;11739;54.750;9.124;2022-09-09T08:13:36;30.63;;;26.23;;
23140;SDS011;11739;54.750;9.124;2022-09-09T08:16:04;33.25;;;26.92;;
23140;SDS011;11739;54.750;9.124;2022-09-09T08:18:32;33.15;;;28.55;;
23140;SDS011;11739;54.750;9.124;2022-09-09T08:21:04;38.78;;;32.78;;
23140;SDS011;11739;54.750;9.124;2022-09-09T08:23:41;47.28;;;37.65;;
23140;SDS011;11739;54.750;9.124;2022-09-09T08:26:12;44.60;;;34.72;;
23140;SDS011;11739;54.750;9.124;2022-09-09T08:28:41;44.15;;;34.75;;
23140;SDS011;11739;54.750;9.124;2022-09-09T08:31:12;44.35;;;32.80;;
23140;SDS011;11739;54.750;9.124;2022-09-09T08:33:41;38.83;;;31.03;;
23140;SDS011;11739;54.750;9.124;2022-09-09T08:36:09;42.75;;;32.63;;
23140;SDS011;11739;54.750;9.124;2022-09-09T08:38:37;38.70;;;30.83;;
23140;SDS011;11739;54.750;9.124;2022-09-09T08:41:08;40.53;;;30.25;;
23140;SDS011;11739;54.750;9.124;2022-09-09T08:43:52;36.65;;;29.00;;
23140;SDS011;11739;54.750;9.124;2022-09-09T08:49:09;34.58;;;28.83;;
23140;SDS011;11739;54.750;9.124;2022-09-09T08:51:44;34.78;;;28.70;;
23140;SDS011;11739;54.750;9.124;2022-09-09T08:54:11;37.22;;;29.38;;
23140;SDS011;11739;54.750;9.124;2022-09-09T08:56:37;39.75;;;30.55;;
23140;SDS011;11739;54.750;9.124;2022-09-09T08:59:04;41.92;;;32.75;;
23140;SDS011;11739;54.750;9.124;2022-09-09T09:01:50;45.30;;;34.83;;
23140;SDS011;11739;54.750;9.124;2022-09-09T09:13:12;42.58;;;32.20;;
23140;SDS011;11739;54.750;9.124;2022-09-09T09:15:44;42.90;;;32.17;;
23140;SDS011;11739;54.750;9.124;2022-09-09T09:18:15;44.22;;;33.50;;
23140;SDS011;11739;54.750;9.124;2022-09-09T09:20:54;41.45;;;32.83;;
23140;SDS011;11739;54.750;9.124;2022-09-09T09:23:39;40.73;;;33.17;;
23140;SDS011;11739;54.750;9.124;2022-09-09T09:26:25;41.97;;;33.03;;
23140;SDS011;11739;54.750;9.124;2022-09-09T09:28:57;41.13;;;33.88;;
23140;SDS011;11739;54.750;9.124;2022-09-09T09:31:25;44.15;;;33.85;;
23140;SDS011;11739;54.750;9.124;2022-09-09T09:33:53;41.08;;;33.70;;
23140;SDS011;11739;54.750;9.124;2022-09-09T09:36:24;38.00;;;31.67;;
23140;SDS011;11739;54.750;9.124;2022-09-09T09:39:01;37.92;;;30.48;;
23140;SDS011;11739;54.750;9.124;2022-09-09T09:41:49;33.58;;;30.02;;
23140;SDS011;11739;54.750;9.124;2022-09-09T09:44:23;38.33;;;29.35;;
23140;SDS011;11739;54.750;9.124;2022-09-09T09:46:49;35.00;;;28.45;;
23140;SDS011;11739;54.750;9.124;2022-09-09T09:49:16;36.03;;;29.02;;
23140;SDS011;11739;54.750;9.124;2022-09-09T09:51:43;29.52;;;26.40;;
23140;SDS011;11739;54.750;9.124;2022-09-09T09:56:39;27.58;;;24.80;;
23140;SDS011;11739;54.750;9.124;2022-09-09T09:59:18;27.40;;;24.42;;
23140;SDS011;11739;54.750;9.124;2022-09-09T10:02:21;27.55;;;24.85;;
23140;SDS011;11739;54.750;9.124;2022-09-09T10:07:32;26.25;;;23.42;;
23140;SDS011;11739;54.750;9.124;2022-09-09T10:10:00;26.63;;;22.40;;
23140;SDS011;11739;54.750;9.124;2022-09-09T10:12:30;26.10;;;22.38;;
23140;SDS011;11739;54.750;9.124;2022-09-09T10:15:07;24.67;;;22.30;;
23140;SDS011;11739;54.750;9.124;2022-09-09T10:26:16;24.75;;;22.17;;
23140;SDS011;11739;54.750;9.124;2022-09-09T10:40:33;22.05;;;19.95;;
23140;SDS011;11739;54.750;9.124;2022-09-09T10:46:06;23.30;;;21.13;;
23140;SDS011;11739;54.750;9.124;2022-09-09T10:49:02;23.30;;;21.20;;
23140;SDS011;11739;54.750;9.124;2022-09-09T10:56:48;23.00;;;21.00;;
23140;SDS011;11739;54.750;9.124;2022-09-09T10:59:24;25.20;;;22.92;;
23140;SDS011;11739;54.750;9.124;2022-09-09T11:01:58;24.48;;;22.25;;
23140;SDS011;11739;54.750;9.124;2022-09-09T11:04:30;24.88;;;22.58;;
23140;SDS011;11739;54.750;9.124;2022-09-09T11:07:00;25.40;;;23.02;;
23140;SDS011;11739;54.750;9.124;2022-09-09T11:09:38;25.48;;;23.17;;
23140;SDS011;11739;54.750;9.124;2022-09-09T11:12:13;26.92;;;24.33;;
23140;SDS011;11739;54.750;9.124;2022-09-09T11:17:20;30.25;;;27.55;;
23140;SDS011;11739;54.750;9.124;2022-09-09T11:19:50;30.35;;;27.58;;
23140;SDS011;11739;54.750;9.124;2022-09-09T11:22:30;35.88;;;32.70;;
23140;SDS011;11739;54.750;9.124;2022-09-09T11:25:01;29.63;;;26.92;;
23140;SDS011;11739;54.750;9.124;2022-09-09T11:30:35;26.50;;;23.95;;
23140;SDS011;11739;54.750;9.124;2022-09-09T11:38:38;22.23;;;19.90;;
23140;SDS011;11739;54.750;9.124;2022-09-09T11:41:13;22.65;;;20.60;;
23140;SDS011;11739;54.750;9.124;2022-09-09T11:43:47;21.40;;;19.50;;
23140;SDS011;11739;54.750;9.124;2022-09-09T11:46:22;20.88;;;19.13;;
23140;SDS011;11739;54.750;9.124;2022-09-09T11:49:00;22.70;;;20.70;;
23140;SDS011;11739;54.750;9.124;2022-09-09T11:51:29;20.90;;;19.13;;
23140;SDS011;11739;54.750;9.124;2022-09-09T11:53:59;19.10;;;17.40;;
23140;SDS011;11739;54.750;9.124;2022-09-09T11:58:59;17.10;;;15.55;;
23140;SDS011;11739;54.750;9.124;2022-09-09T12:04:01;17.67;;;16.13;;
23140;SDS011;11739;54.750;9.124;2022-09-09T12:06:53;16.02;;;14.60;;
23140;SDS011;11739;54.750;9.124;2022-09-09T12:09:27;14.25;;;12.88;;
23140;SDS011;11739;54.750;9.124;2022-09-09T12:17:19;14.52;;;13.23;;
23140;SDS011;11739;54.750;9.124;2022-09-09T12:20:00;13.73;;;12.60;;
23140;SDS011;11739;54.750;9.124;2022-09-09T12:28:20;13.00;;;11.82;;
23140;SDS011;11739;54.750;9.124;2022-09-09T12:33:35;12.38;;;11.38;;
23140;SDS011;11739;54.750;9.124;2022-09-09T12:36:03;9.32;;;8.50;;
23140;SDS011;11739;54.750;9.124;2022-09-09T12:38:37;9.48;;;8.77;;
23140;SDS011;11739;54.750;9.124;2022-09-09T12:41:04;8.10;;;7.38;;
23140;SDS011;11739;54.750;9.124;2022-09-09T12:43:32;7.43;;;6.72;;
23140;SDS011;11739;54.750;9.124;2022-09-09T12:45:59;7.15;;;6.45;;
23140;SDS011;11739;54.750;9.124;2022-09-09T12:48:29;7.13;;;6.55;;
23140;SDS011;11739;54.750;9.124;2022-09-09T12:51:18;6.95;;;3.42;;
23140;SDS011;11739;54.750;9.124;2022-09-09T12:53:47;4.38;;;3.40;;
23140;SDS011;11739;54.750;9.124;2022-09-09T12:56:20;8.18;;;5.18;;
23140;SDS011;11739;54.750;9.124;2022-09-09T12:58:49;3.83;;;3.25;;
23140;SDS011;11739;54.750;9.124;2022-09-09T13:01:30;3.67;;;3.30;;
23140;SDS011;11739;54.750;9.124;2022-09-09T13:03:59;3.30;;;3.00;;
23140;SDS011;11739;54.750;9.124;2022-09-09T13:06:27;5.53;;;2.85;;
23140;SDS011;11739;54.750;9.124;2022-09-09T13:08:56;3.50;;;3.20;;
23140;SDS011;11739;54.750;9.124;2022-09-09T13:11:26;3.38;;;2.90;;
23140;SDS011;11739;54.750;9.124;2022-09-09T13:13:57;3.88;;;3.13;;
23140;SDS011;11739;54.750;9.124;2022-09-09T13:16:31;4.53;;;3.10;;
23140;SDS011;11739;54.750;9.124;2022-09-09T13:19:09;2.58;;;2.38;;
23140;SDS011;11739;54.750;9.124;2022-09-09T13:21:39;2.92;;;2.50;;
23140;SDS011;11739;54.750;9.124;2022-09-09T13:24:06;3.50;;;3.00;;
23140;SDS011;11739;54.750;9.124;2022-09-09T13:27:50;2.47;;;2.28;;
23140;SDS011;11739;54.750;9.124;2022-09-09T13:29:51;3.85;;;2.17;;
23140;SDS011;11739;54.750;9.124;2022-09-09T13:32:23;2.50;;;1.77;;
23140;SDS011;11739;54.750;9.124;2022-09-09T13:34:58;2.75;;;1.85;;
23140;SDS011;11739;54.750;9.124;2022-09-09T13:37:31;3.28;;;1.90;;
23140;SDS011;11739;54.750;9.124;2022-09-09T13:40:00;2.55;;;1.83;;
23140;SDS011;11739;54.750;9.124;2022-09-09T13:42:29;3.00;;;2.35;;
23140;SDS011;11739;54.750;9.124;2022-09-09T13:44:56;3.47;;;2.58;;
23140;SDS011;11739;54.750;9.124;2022-09-09T13:47:31;6.05;;;2.38;;
23140;SDS011;11739;54.750;9.124;2022-09-09T13:50:17;3.22;;;1.80;;
23140;SDS011;11739;54.750;9.124;2022-09-09T13:52:46;2.15;;;1.90;;
23140;SDS011;11739;54.750;9.124;2022-09-09T13:55:13;3.22;;;2.15;;
23140;SDS011;11739;54.750;9.124;2022-09-09T13:57:49;2.63;;;2.20;;
23140;SDS011;11739;54.750;9.124;2022-09-09T14:00:30;3.40;;;2.20;;
23140;SDS011;11739;54.750;9.124;2022-09-09T14:02:57;2.92;;;2.00;;
23140;SDS011;11739;54.750;9.124;2022-09-09T14:05:27;2.17;;;1.92;;
23140;SDS011;11739;54.750;9.124;2022-09-09T14:07:54;5.75;;;1.88;;
23140;SDS011;11739;54.750;9.124;2022-09-09T14:10:20;4.35;;;1.85;;
23140;SDS011;11739;54.750;9.124;2022-09-09T14:12:48;3.05;;;1.77;;
23140;SDS011;11739;54.750;9.124;2022-09-09T14:15:14;4.00;;;2.00;;
23140;SDS011;11739;54.750;9.124;2022-09-09T14:17:42;3.17;;;1.65;;
23140;SDS011;11739;54.750;9.124;2022-09-09T14:20:09;5.07;;;2.63;;
23140;SDS011;11739;54.750;9.124;2022-09-09T14:22:37;8.05;;;2.60;;
23140;SDS011;11739;54.750;9.124;2022-09-09T14:25:05;5.85;;;2.00;;
23140;SDS011;11739;54.750;9.124;2022-09-09T14:27:32;1.98;;;1.60;;
23140;SDS011;11739;54.750;9.124;2022-09-09T14:29:59;2.97;;;1.90;;
23140;SDS011;11739;54.750;9.124;2022-09-09T14:32:26;2.97;;;1.63;;
23140;SDS011;11739;54.750;9.124;2022-09-09T14:34:53;4.72;;;1.75;;
23140;SDS011;11739;54.750;9.124;2022-09-09T14:37:19;1.95;;;1.30;;
23140;SDS011;11739;54.750;9.124;2022-09-09T14:39:46;3.13;;;1.88;;
23140;SDS011;11739;54.750;9.124;2022-09-09T14:42:14;2.38;;;1.52;;
23140;SDS011;11739;54.750;9.124;2022-09-09T14:44:40;2.03;;;1.27;;
23140;SDS011;11739;54.750;9.124;2022-09-09T14:47:07;4.28;;;1.30;;
23140;SDS011;11739;54.750;9.124;2022-09-09T14:49:34;1.40;;;1.05;;
23140;SDS011;11739;54.750;9.124;2022-09-09T14:52:01;1.80;;;1.20;;
23140;SDS011;11739;54.750;9.124;2022-09-09T14:54:28;1.52;;;1.10;;
23140;SDS011;11739;54.750;9.124;2022-09-09T14:56:55;2.03;;;0.90;;
23140;SDS011;11739;54.750;9.124;2022-09-09T14:59:22;2.78;;;1.00;;
23140;SDS011;11739;54.750;9.124;2022-09-09T15:01:49;2.63;;;1.00;;
23140;SDS011;11739;54.750;9.124;2022-09-09T15:04:19;1.80;;;1.00;;
23140;SDS011;11739;54.750;9.124;2022-09-09T15:06:46;1.45;;;0.95;;
23140;SDS011;11739;54.750;9.124;2022-09-09T15:09:14;2.15;;;1.17;;
23140;SDS011;11739;54.750;9.124;2022-09-09T15:11:43;0.77;;;0.65;;
23140;SDS011;11739;54.750;9.124;2022-09-09T15:14:12;1.70;;;0.93;;
23140;SDS011;11739;54.750;9.124;2022-09-09T15:16:39;1.52;;;0.68;;
23140;SDS011;11739;54.750;9.124;2022-09-09T15:19:06;2.63;;;1.20;;
23140;SDS011;11739;54.750;9.124;2022-09-09T15:21:34;1.38;;;0.77;;
23140;SDS011;11739;54.750;9.124;2022-09-09T15:24:01;0.75;;;0.68;;
23140;SDS011;11739;54.750;9.124;2022-09-09T15:26:28;0.70;;;0.60;;
23140;SDS011;11739;54.750;9.124;2022-09-09T15:28:56;1.15;;;0.70;;
23140;SDS011;11739;54.750;9.124;2022-09-09T15:31:29;2.08;;;0.80;;
23140;SDS011;11739;54.750;9.124;2022-09-09T15:33:57;1.58;;;0.82;;
23140;SDS011;11739;54.750;9.124;2022-09-09T15:38:54;1.92;;;0.77;;
23140;SDS011;11739;54.750;9.124;2022-09-09T15:41:21;2.63;;;0.95;;
23140;SDS011;11739;54.750;9.124;2022-09-09T15:43:49;1.30;;;0.70;;
23140;SDS011;11739;54.750;9.124;2022-09-09T15:48:44;1.25;;;0.70;;
23140;SDS011;11739;54.750;9.124;2022-09-09T15:51:13;1.33;;;0.70;;
23140;SDS011;11739;54.750;9.124;2022-09-09T15:54:00;0.60;;;0.60;;
23140;SDS011;11739;54.750;9.124;2022-09-09T15:56:27;0.68;;;0.60;;
23140;SDS011;11739;54.750;9.124;2022-09-09T15:58:58;1.73;;;0.80;;
23140;SDS011;11739;54.750;9.124;2022-09-09T16:01:26;1.70;;;0.80;;
23140;SDS011;11739;54.750;9.124;2022-09-09T16:03:53;1.60;;;0.85;;
23140;SDS011;11739;54.750;9.124;2022-09-09T16:06:20;1.10;;;0.68;;
23140;SDS011;11739;54.750;9.124;2022-09-09T16:08:49;2.60;;;1.00;;
23140;SDS011;11739;54.750;9.124;2022-09-09T16:11:19;1.52;;;0.70;;
23140;SDS011;11739;54.750;9.124;2022-09-09T16:13:48;3.42;;;1.10;;
23140;SDS011;11739;54.750;9.124;2022-09-09T16:16:17;2.05;;;0.98;;
23140;SDS011;11739;54.750;9.124;2022-09-09T16:18:46;1.92;;;1.00;;
23140;SDS011;11739;54.750;9.124;2022-09-09T16:21:21;1.75;;;0.77;;
23140;SDS011;11739;54.750;9.124;2022-09-09T16:23:52;1.00;;;0.68;;
23140;SDS011;11739;54.750;9.124;2022-09-09T16:26:19;1.70;;;0.70;;
23140;SDS011;11739;54.750;9.124;2022-09-09T16:28:47;2.33;;;1.08;;
23140;SDS011;11739;54.750;9.124;2022-09-09T16:31:15;2.47;;;1.02;;
23140;SDS011;11739;54.750;9.124;2022-09-09T16:33:43;3.47;;;1.25;;
23140;SDS011;11739;54.750;9.124;2022-09-09T16:36:14;2.80;;;1.30;;
23140;SDS011;11739;54.750;9.124;2022-09-09T16:38:42;1.05;;;0.75;;
23140;SDS011;11739;54.750;9.124;2022-09-09T16:41:09;2.28;;;1.10;;
23140;SDS011;11739;54.750;9.124;2022-09-09T16:43:37;1.23;;;0.90;;
23140;SDS011;11739;54.750;9.124;2022-09-09T16:46:14;3.25;;;1.27;;
23140;SDS011;11739;54.750;9.124;2022-09-09T16:48:45;3.30;;;1.10;;
23140;SDS011;11739;54.750;9.124;2022-09-09T16:51:14;2.22;;;1.08;;
23140;SDS011;11739;54.750;9.124;2022-09-09T16:53:42;1.75;;;1.50;;